Skip to main content

NOAA/GLERL Met Station at Michigan City, IN

Previous 5 days (top of hour only)
See also Previous 3 Hours (2 minute increments)
Jump down to Data
Switch to [English][Metric]
Zoom: Click and drag, Pan: shift-click and drag, Unzoom: double-click, Unzoom All






Note: Speed = mean wind during 2-minute period at top of hour,
Gust = max wind during 2-minute period at top of hour,
Peak = max wind during entire hour.
• See also 5-day windrose plot


NOAA/GLERL Met Station at Michigan City, IN

Previous 5 days (top of hour only)
See also Previous 3 Hours (2 minute increments)
Jump up to Graphs
Switch to [English][Metric]
                  Wind  Wind  Wind   Air   Dew   Rel     Sta   PAR
                   Spd   Gst   Dir  Temp    Pt   Hum    Pres uE/m2/
YYYY-MM-DD   CDT   kts   kts   deg     F     F     %   in Hg   sec
2021-10-25 00:00 -99.0 -99.0   -99   0.0   0.0   0.0    0.00     0
2021-10-24 14:00  14.6  16.1    59  47.3  45.6  93.9   29.23   164
2021-10-24 13:00  17.1  18.7    66  45.5  44.3  95.6   29.19   185
2021-10-24 12:00  11.7  13.0    67  45.0  43.6  94.9   29.28   164
2021-10-24 11:00   8.4   9.7    84  44.8  42.6  91.8   29.29   164
2021-10-24 10:00   8.7  11.5   123  45.7  39.0  77.1   29.31     0
2021-10-24 09:00   7.6   8.9   123  45.5  37.1  72.2   29.33     0
2021-10-24 08:00  10.1  11.5   116  44.2  37.2  75.9   29.31     0
2021-10-24 07:00   8.7  11.7   106  44.2  37.8  77.8   29.31     0
2021-10-24 06:00  10.3  12.2   112  43.5  37.2  78.0   29.31     0
2021-10-24 05:00   8.7  10.9   125  42.3  36.5  79.9   29.33     0
2021-10-24 04:00   7.8   8.9   135  40.8  35.5  81.0   29.34     0
2021-10-24 03:00   6.2   7.6   118  43.9  36.3  74.5   29.35     0
2021-10-24 02:00   7.0   7.6   127  43.0  36.1  76.5   29.37     0
2021-10-24 01:00   5.6   6.2   106  46.0  35.1  65.3   29.36     0
2021-10-24 00:00   6.0   6.6   132  43.2  35.0  72.7   29.37     0
2021-10-23 23:00   5.2   5.6   128  42.6  35.8  76.6   29.36     0
2021-10-23 22:00   6.0   6.4   125  43.9  36.3  74.5   29.36     0
2021-10-23 21:00   6.0   6.8   145  43.9  36.9  76.2   29.36     0
2021-10-23 20:00   5.4   6.4   138  45.9  36.5  69.5   29.36     0
2021-10-23 19:00   5.4   7.0    34  50.2  33.8  52.9   29.36     0
2021-10-23 18:00   1.7   3.1    28  50.0  33.6  52.9   29.35     0
2021-10-23 17:00   3.7   4.5    17  51.4  33.5  50.0   29.36   164
2021-10-23 16:00   5.4   6.6   357  52.5  33.7  48.4   29.35   491
2021-10-23 15:00   7.0   9.5   327  52.3  33.0  47.4   29.36   819
2021-10-23 14:00   9.3  10.7   346  52.2  33.4  48.4   29.36   983
2021-10-23 13:00  10.7  12.6   312  51.4  32.3  47.6   29.37   874
2021-10-23 12:00   9.5  14.6   307  51.4  32.6  48.2   29.38  1147
2021-10-23 11:00   8.7  13.4   329  50.9  35.3  54.7   29.38   560
2021-10-23 10:00   9.9  11.5   330  50.9  33.7  51.3   29.36   724
2021-10-23 09:00  11.1  12.1   341  52.0  36.8  55.8   29.36   649
2021-10-23 08:00   9.9  11.5   335  51.1  36.3  56.5   29.35     7
2021-10-23 07:00   8.9  12.2   350  50.9  35.9  56.2   29.32     0
2021-10-23 06:00  13.8  15.0   305  51.4  37.5  58.6   29.31     0
2021-10-23 05:00  12.4  13.4   304  52.0  37.9  58.2   29.30     0
2021-10-23 04:00  16.5  19.6   281  52.7  39.4  60.3   29.30     0
2021-10-23 03:00  13.2  15.0   217  47.7  42.7  82.7   29.30     0
2021-10-23 02:00  10.9  12.2   191  48.0  41.6  78.3   29.31     0
2021-10-23 01:00  11.1  13.6   184  48.7  40.1  71.7   29.31     0
2021-10-23 00:00   8.2  10.3   186  48.7  40.2  72.0   29.31     0
2021-10-22 23:00   3.5   4.3   152  48.7  42.1  77.7   29.32     0
2021-10-22 22:00   4.9   5.8   192  49.3  41.0  72.9   29.33     0
2021-10-22 21:00   5.6   6.6   152  49.6  39.8  68.7   29.33     0
2021-10-22 20:00   5.4   6.8   153  50.2  39.3  65.9   29.34     0
2021-10-22 19:00   4.7   5.8   340  52.2  36.1  53.9   29.33     0
2021-10-22 18:00   5.4   7.0   283  52.0  35.5  53.1   29.33     0
2021-10-22 17:00   8.7  10.5   284  52.2  35.6  52.9   29.34   157
2021-10-22 16:00   8.7  10.7   315  52.5  35.1  51.2   29.33   164
2021-10-22 15:00  10.9  13.0   267  52.0  34.8  51.6   29.33   731
2021-10-22 14:00  15.7  18.7   258  51.4  36.2  55.6   29.34   950
2021-10-22 13:00   6.6   8.0   192  50.2  43.3  77.1   29.37   567
2021-10-22 12:00   8.6  10.1   171  48.7  41.8  76.7   29.37   164
2021-10-22 11:00   9.1  11.1   162  48.0  39.4  71.8   29.39   164
2021-10-22 10:00   6.4   7.6   147  47.1  37.8  69.6   29.38   123
2021-10-22 09:00   8.0   9.7   139  46.2  37.5  71.4   29.38   164
2021-10-22 08:00   7.2   8.4   155  45.7  37.9  74.0   29.38     0
2021-10-22 07:00   5.1   6.4   141  45.5  38.9  77.6   29.38     0
2021-10-22 06:00   6.6   8.0   139  45.3  38.8  77.7   29.38     0
2021-10-22 05:00   6.8   8.0   123  45.1  39.2  79.6   29.38     0
2021-10-22 04:00   6.2   7.2   132  45.3  39.7  80.4   29.36     0
2021-10-22 03:00   7.4   8.7   116  46.4  40.6  80.1   29.35     0
2021-10-22 02:00   6.2   8.7   109  48.7  42.1  77.7   29.35     0
2021-10-22 01:00  14.4  15.7    19  53.8  40.6  60.7   29.34     0
2021-10-22 00:00  16.1  18.1     3  54.0  41.6  62.7   29.36     0
2021-10-21 23:00  13.2  15.4     4  53.2  44.0  70.6   29.37     0
2021-10-21 22:00  16.7  19.2   354  54.0  46.5  75.7   29.35     0
2021-10-21 21:00  22.7  24.1   356  53.2  48.0  82.1   29.33     0
2021-10-21 20:00  24.5  26.2   355  53.2  49.4  86.5   29.33     0
2021-10-21 19:00  23.3  26.0   358  53.6  51.2  91.6   29.31     0
2021-10-21 18:00  25.9  28.0   343  54.7  50.1  84.4   29.28     0
2021-10-21 17:00  20.8  23.5   299  53.8  50.3  88.0   29.26     0
2021-10-21 16:00  23.1  25.3   276  53.4  49.2  85.4   29.25     0
2021-10-21 15:00  21.6  24.3   264  52.0  48.3  87.2   29.22   157
2021-10-21 14:00  25.1  27.6   252  51.4  46.3  82.5   29.20   164
2021-10-21 13:00  24.3  27.8   256  52.0  45.9  79.4   29.20   164
2021-10-21 12:00  25.9  29.2   259  52.0  45.0  76.8   29.19   164
2021-10-21 11:00  26.0  29.7   246  53.6  47.1  78.5   29.18   164
2021-10-21 10:00  17.3  19.4   219  53.2  46.9  78.8   29.17     0
2021-10-21 09:00  22.6  28.2   233  54.5  47.6  77.2   29.16   164
2021-10-21 08:00  19.8  21.8   233  54.9  48.8  79.8   29.16   328
2021-10-21 07:00  22.4  24.5   245  56.5  47.5  71.7   29.14     0
2021-10-21 06:00  21.6  25.5   245  57.4  47.2  68.5   29.15     0
2021-10-21 05:00  19.6  22.0   229  61.9  50.5  65.8   29.14     0
2021-10-21 04:00  15.4  17.5   241  63.7  57.8  80.8   29.15     0
2021-10-21 03:00  13.6  16.1   217  64.9  57.1  75.3   29.16     0
2021-10-21 02:00  12.6  15.0   196  65.1  55.8  71.5   29.16     0
2021-10-21 01:00  11.9  15.2   189  64.2  55.2  72.3   29.17     0
2021-10-21 00:00  14.6  16.7   195  65.7  53.7  65.0   29.19     0
2021-10-20 23:00  13.4  16.5   179  65.5  53.4  64.5   29.21     0
2021-10-20 22:00  15.2  19.1   179  66.4  52.5  60.6   29.23     0
2021-10-20 21:00  13.8  17.3   175  65.8  52.5  61.6   29.23     0
2021-10-20 20:00   9.7  12.8   188  66.2  52.7  61.3   29.26     0
2021-10-20 19:00  11.1  12.1   207  68.2  51.1  53.9   29.26     0
2021-10-20 18:00  14.2  18.1   158  68.9  51.0  52.3   29.20     0
2021-10-20 17:00  16.3  20.2   165  70.7  50.1  47.5   29.23     0
2021-10-20 16:00  12.4  18.1   196  70.9  51.0  48.8   29.26   409
2021-10-20 15:00  12.8  15.9   174  70.9  49.9  46.9   29.29   164
2021-10-20 14:00  11.3  14.6   174  70.3  50.1  48.2   29.31   327
2021-10-20 13:00   9.1  11.7   173  69.3  49.9  49.6   29.34  1146
2021-10-20 12:00   8.7  12.2   180  66.2  50.2  55.8   29.37  1112
2021-10-20 11:00   7.0   9.9   179  63.5  49.5  60.0   29.39   983
2021-10-20 10:00   7.8   9.5   189  59.9  48.9  66.6   29.41   819
2021-10-20 09:00   6.8   8.4   168  57.0  47.4  69.9   29.40   492
2021-10-20 08:00   9.5  13.2   186  55.0  46.5  72.6   29.41   164
2021-10-20 07:00   9.5  11.9   183  55.2  46.6  72.4   29.42     0
2021-10-20 06:00   8.9  12.8   187  55.8  46.1  69.8   29.43     0
2021-10-20 05:00   9.7  12.6   194  56.7  46.2  67.6   29.42     0
2021-10-20 04:00  11.7  14.4   187  57.7  45.8  64.1   29.42     0
2021-10-20 03:00  10.9  13.4   186  57.4  45.8  65.0   29.42     0
2021-10-20 02:00  11.1  13.0   186  57.7  45.6  63.5   29.41     0
2021-10-20 01:00  11.3  14.0   177  57.6  45.7  64.3   29.41     0
2021-10-20 00:00  10.5  12.1   182  57.7  45.4  63.1   29.42     0
2021-10-19 23:00   9.9  11.7   181  58.5  45.0  60.5   29.42     0
2021-10-19 22:00   9.5  11.5   176  59.9  44.5  56.3   29.41     0
2021-10-19 21:00  10.3  13.6   174  61.0  44.0  53.1   29.41     0
2021-10-19 20:00   8.9  12.6   175  62.4  43.6  49.7   29.41     0
2021-10-19 19:00   8.7  11.1   184  64.4  43.4  46.0   29.41     0